createdAt,value
2022-12-01T00:00:55.487Z,19.92
2022-12-01T00:03:42.687Z,23.48
2022-12-01T00:06:31.239Z,24.15
2022-12-01T00:09:35.647Z,23.45
2022-12-01T00:12:23.009Z,21.75
2022-12-01T00:15:10.629Z,23.02
2022-12-01T00:17:59.352Z,25.10
2022-12-01T00:20:49.013Z,22.23
2022-12-01T00:23:37.353Z,23.30
2022-12-01T00:26:26.873Z,24.65
2022-12-01T00:29:13.980Z,21.17
2022-12-01T00:32:01.330Z,24.00
2022-12-01T00:34:48.621Z,22.00
2022-12-01T00:37:36.664Z,24.02
2022-12-01T00:40:24.832Z,22.88
2022-12-01T00:43:12.110Z,22.17
2022-12-01T00:45:59.090Z,22.27
2022-12-01T00:48:45.880Z,22.48
2022-12-01T00:51:33.032Z,22.48
2022-12-01T00:54:20.576Z,22.42
2022-12-01T00:57:09.283Z,23.30
2022-12-01T00:59:56.219Z,22.83
2022-12-01T01:02:43.312Z,22.05
2022-12-01T01:05:30.478Z,20.65
2022-12-01T01:08:17.619Z,21.60
2022-12-01T01:11:05.575Z,21.60
2022-12-01T01:13:54.002Z,23.00
2022-12-01T01:16:41.164Z,21.63
2022-12-01T01:19:28.360Z,21.92
2022-12-01T01:22:15.523Z,21.38
2022-12-01T01:25:02.767Z,20.80
2022-12-01T01:27:49.640Z,22.00
2022-12-01T01:30:40.864Z,23.55
2022-12-01T01:33:27.824Z,22.00
2022-12-01T01:36:15.861Z,23.27
2022-12-01T01:39:03.471Z,19.85
2022-12-01T01:41:50.390Z,23.13
2022-12-01T01:44:53.101Z,22.02
2022-12-01T01:47:42.657Z,22.02
2022-12-01T01:50:30.227Z,22.33
2022-12-01T01:53:17.485Z,21.80
2022-12-01T01:56:05.700Z,21.30
2022-12-01T01:58:54.239Z,22.33
2022-12-01T02:01:41.126Z,21.67
2022-12-01T02:04:30.546Z,23.08
2022-12-01T02:07:19.968Z,22.15
2022-12-01T02:10:10.142Z,19.88
2022-12-01T02:13:17.554Z,19.95
2022-12-01T02:16:11.137Z,18.80
2022-12-01T02:19:07.121Z,23.40
2022-12-01T02:22:09.286Z,19.67
2022-12-01T02:25:29.802Z,23.13
2022-12-01T02:28:47.415Z,22.20
2022-12-01T02:31:44.259Z,22.05
2022-12-01T02:37:27.243Z,23.85
2022-12-01T02:40:20.295Z,21.35
2022-12-01T02:43:17.382Z,21.70
2022-12-01T02:46:08.288Z,21.40
2022-12-01T02:49:00.712Z,21.23
2022-12-01T02:51:49.005Z,22.10
2022-12-01T02:54:36.822Z,19.77
2022-12-01T02:57:24.674Z,21.90
2022-12-01T03:00:13.913Z,20.80
2022-12-01T03:03:12.964Z,22.10
2022-12-01T03:06:12.530Z,20.92
2022-12-01T03:09:10.438Z,21.38
2022-12-01T03:12:05.799Z,20.15
2022-12-01T03:15:00.040Z,20.25
2022-12-01T03:17:53.798Z,22.10
2022-12-01T03:20:45.380Z,23.20
2022-12-01T03:23:38.690Z,22.10
2022-12-01T03:26:30.680Z,20.95
2022-12-01T03:29:24.547Z,22.58
2022-12-01T03:44:07.239Z,22.35
2022-12-01T03:46:58.358Z,21.58
2022-12-01T03:49:47.415Z,23.35
2022-12-01T03:52:42.927Z,22.88
2022-12-01T03:55:31.440Z,22.77
2022-12-01T03:58:22.364Z,20.63
2022-12-01T04:01:10.903Z,24.50
2022-12-01T04:04:01.485Z,21.75
2022-12-01T04:06:51.408Z,24.85
2022-12-01T04:09:38.530Z,22.40
2022-12-01T04:12:32.977Z,24.52
2022-12-01T04:15:20.347Z,23.27
2022-12-01T04:18:08.926Z,22.90
2022-12-01T04:20:55.856Z,21.67
2022-12-01T04:24:00.183Z,26.10
2022-12-01T04:26:47.512Z,22.67
2022-12-01T04:29:35.279Z,24.95
2022-12-01T04:32:22.314Z,26.27
2022-12-01T04:35:12.796Z,23.45
2022-12-01T04:38:01.088Z,23.63
2022-12-01T04:40:48.232Z,25.17
2022-12-01T04:43:35.389Z,24.05
2022-12-01T04:46:22.723Z,24.17
2022-12-01T04:49:09.755Z,21.45
2022-12-01T04:51:58.128Z,22.17
2022-12-01T04:54:45.292Z,23.55
2022-12-01T04:57:32.541Z,23.77
2022-12-01T05:00:19.899Z,21.63
2022-12-01T05:03:10.766Z,22.00
2022-12-01T05:06:03.930Z,22.20
2022-12-01T05:08:52.785Z,23.05
2022-12-01T05:11:39.799Z,22.35
2022-12-01T05:14:27.154Z,20.40
2022-12-01T05:17:13.880Z,21.48
2022-12-01T05:20:18.460Z,21.42
2022-12-01T05:23:06.403Z,21.60
2022-12-01T05:25:55.996Z,23.50
2022-12-01T05:28:43.147Z,21.55
2022-12-01T05:31:30.737Z,23.38
2022-12-01T05:34:17.989Z,21.90
2022-12-01T05:37:05.829Z,22.52
2022-12-01T05:39:52.601Z,22.23
2022-12-01T05:42:41.516Z,21.08
2022-12-01T05:45:28.870Z,22.38
2022-12-01T05:48:17.070Z,21.33
2022-12-01T05:51:10.093Z,20.65
2022-12-01T05:53:57.189Z,22.30
2022-12-01T05:56:44.449Z,23.38
2022-12-01T05:59:33.068Z,22.77
2022-12-01T06:02:20.340Z,23.75
2022-12-01T06:05:08.554Z,22.98
2022-12-01T06:07:55.607Z,22.75
2022-12-01T06:10:42.696Z,22.10
2022-12-01T06:13:29.361Z,20.83
2022-12-01T06:16:18.268Z,21.27
2022-12-01T06:19:05.930Z,19.27
2022-12-01T06:21:53.334Z,19.90
2022-12-01T06:24:40.415Z,21.80
2022-12-01T06:27:27.269Z,22.13
2022-12-01T06:30:14.837Z,20.80
2022-12-01T06:33:03.461Z,22.05
2022-12-01T06:35:50.282Z,21.88
2022-12-01T06:38:38.409Z,20.77
2022-12-01T06:41:25.441Z,23.33
2022-12-01T06:44:12.755Z,21.98
2022-12-01T06:46:59.753Z,23.70
2022-12-01T06:49:48.297Z,22.58
2022-12-01T06:52:35.806Z,21.80
2022-12-01T06:55:23.028Z,22.40
2022-12-01T06:58:10.658Z,23.92
2022-12-01T07:00:59.239Z,23.42
2022-12-01T07:03:49.607Z,22.92
2022-12-01T07:06:38.292Z,22.55
2022-12-01T07:09:25.420Z,24.20
2022-12-01T07:12:12.691Z,22.40
2022-12-01T07:15:00.022Z,25.65
2022-12-01T07:17:47.123Z,25.88
2022-12-01T07:20:34.471Z,26.38
2022-12-01T07:23:23.051Z,26.63
2022-12-01T07:26:12.632Z,28.73
2022-12-01T07:28:59.803Z,27.02
2022-12-01T07:31:46.823Z,26.10
2022-12-01T07:34:34.048Z,25.67
2022-12-01T07:37:21.286Z,26.40
2022-12-01T07:40:11.207Z,24.02
2022-12-01T07:42:58.427Z,24.38
2022-12-01T07:45:45.589Z,25.35
2022-12-01T07:48:32.702Z,30.05
2022-12-01T07:51:20.178Z,38.15
2022-12-01T07:54:07.867Z,37.63
2022-12-01T07:56:56.122Z,34.45
2022-12-01T07:59:42.918Z,29.30
2022-12-01T08:02:30.161Z,26.98
2022-12-01T08:05:17.204Z,27.92
2022-12-01T08:08:04.511Z,26.95
2022-12-01T08:10:51.665Z,26.17
2022-12-01T08:13:40.549Z,24.92
2022-12-01T08:16:27.865Z,23.23
2022-12-01T08:19:15.402Z,23.40
2022-12-01T08:22:02.668Z,23.27
2022-12-01T08:24:49.876Z,26.40
2022-12-01T08:27:37.069Z,29.67
2022-12-01T08:30:25.421Z,31.40
2022-12-01T08:33:12.553Z,30.25
2022-12-01T08:36:02.833Z,27.60
2022-12-01T08:38:53.309Z,25.40
2022-12-01T08:41:40.277Z,24.55
2022-12-01T08:44:27.413Z,24.33
2022-12-01T08:47:18.955Z,24.65
2022-12-01T08:50:07.551Z,24.27
2022-12-01T08:52:54.823Z,24.55
2022-12-01T08:55:41.615Z,27.10
2022-12-01T08:58:29.568Z,22.85
2022-12-01T09:01:18.210Z,24.58
2022-12-01T09:04:08.690Z,24.30
2022-12-01T09:06:57.569Z,26.40
2022-12-01T09:09:46.180Z,24.80
2022-12-01T09:12:33.378Z,22.58
2022-12-01T09:15:20.870Z,22.85
2022-12-01T09:18:07.775Z,23.45
2022-12-01T09:20:57.202Z,22.65
2022-12-01T09:23:44.519Z,22.77
2022-12-01T09:26:32.405Z,24.05
2022-12-01T09:29:19.405Z,26.48
2022-12-01T09:32:06.551Z,25.23
2022-12-01T09:34:53.538Z,22.23
2022-12-01T09:37:41.940Z,22.13
2022-12-01T09:40:33.016Z,20.98
2022-12-01T09:43:23.859Z,21.92
2022-12-01T09:46:17.760Z,21.73
2022-12-01T09:49:05.175Z,20.60
2022-12-01T09:51:53.860Z,22.48
2022-12-01T09:54:42.463Z,21.48
2022-12-01T09:57:33.698Z,20.63
2022-12-01T10:00:24.471Z,22.75
2022-12-01T10:03:23.517Z,22.95
2022-12-01T10:06:27.270Z,21.45
2022-12-01T10:09:22.608Z,22.20
2022-12-01T10:12:15.928Z,21.67
2022-12-01T10:15:25.140Z,20.73
2022-12-01T10:18:22.663Z,23.10
2022-12-01T10:21:16.012Z,21.35
2022-12-01T10:24:24.413Z,22.40
2022-12-01T10:27:25.163Z,19.83
2022-12-01T10:30:16.949Z,23.17
2022-12-01T10:33:11.234Z,20.75
2022-12-01T10:35:59.032Z,20.50
2022-12-01T10:38:46.031Z,21.35
2022-12-01T10:41:38.121Z,21.15
2022-12-01T10:44:26.844Z,22.35
2022-12-01T10:47:20.832Z,19.63
2022-12-01T10:50:09.247Z,20.80
2022-12-01T10:52:55.867Z,20.60
2022-12-01T10:55:47.928Z,21.55
2022-12-01T10:58:43.443Z,22.50
2022-12-01T11:01:35.770Z,21.90
2022-12-01T11:04:42.574Z,20.52
2022-12-01T11:07:33.612Z,19.70
2022-12-01T11:10:23.891Z,21.45
2022-12-01T11:13:21.708Z,21.33
2022-12-01T11:16:30.344Z,22.17
2022-12-01T11:19:33.280Z,22.20
2022-12-01T11:22:23.300Z,20.15
2022-12-01T11:25:21.182Z,20.73
2022-12-01T11:28:08.245Z,20.05
2022-12-01T11:30:58.739Z,19.45
2022-12-01T11:33:49.963Z,21.25
2022-12-01T11:36:44.021Z,19.33
2022-12-01T11:39:33.577Z,17.80
2022-12-01T11:42:25.928Z,21.75
2022-12-01T11:45:25.879Z,18.77
2022-12-01T11:48:26.741Z,20.05
2022-12-01T11:51:27.535Z,21.13
2022-12-01T11:54:18.552Z,19.17
2022-12-01T11:57:33.155Z,19.85
2022-12-01T12:00:20.381Z,20.20
2022-12-01T12:03:21.098Z,21.52
2022-12-01T12:06:39.484Z,19.00
2022-12-01T12:09:47.159Z,20.13
2022-12-01T12:12:47.751Z,20.52
2022-12-01T12:15:43.233Z,19.65
2022-12-01T12:18:49.900Z,19.15
2022-12-01T12:21:48.053Z,17.52
2022-12-01T12:24:51.645Z,20.05
2022-12-01T12:27:48.161Z,20.30
2022-12-01T12:30:43.746Z,18.35
2022-12-01T12:33:47.410Z,16.70
2022-12-01T12:36:44.588Z,16.58
2022-12-01T12:39:50.702Z,18.35
2022-12-01T12:42:48.980Z,15.88
2022-12-01T12:45:44.595Z,16.17
2022-12-01T12:49:21.439Z,16.95
2022-12-01T12:52:14.172Z,16.60
2022-12-01T12:55:12.854Z,19.55
2022-12-01T12:58:08.020Z,18.30
2022-12-01T13:01:02.688Z,17.35
2022-12-01T13:03:56.407Z,15.18
2022-12-01T13:06:46.997Z,16.25
2022-12-01T13:09:39.119Z,16.17
2022-12-01T13:12:31.114Z,17.20
2022-12-01T13:15:20.774Z,16.33
2022-12-01T13:18:17.970Z,13.85
2022-12-01T13:21:06.778Z,13.70
2022-12-01T13:23:54.271Z,13.32
2022-12-01T13:26:44.412Z,13.68
2022-12-01T13:29:43.711Z,13.77
2022-12-01T13:32:35.639Z,13.63
2022-12-01T13:35:26.771Z,14.35
2022-12-01T13:38:26.096Z,13.45
2022-12-01T13:41:24.366Z,14.10
2022-12-01T13:44:23.719Z,13.52
2022-12-01T13:47:38.797Z,13.10
2022-12-01T13:50:54.392Z,12.65
2022-12-01T13:53:58.806Z,14.32
2022-12-01T13:56:59.593Z,13.75
2022-12-01T14:00:21.687Z,13.38
2022-12-01T14:03:49.236Z,13.68
2022-12-01T14:06:46.423Z,14.57
2022-12-01T14:09:36.902Z,14.23
2022-12-01T14:12:29.154Z,13.20
2022-12-01T14:15:30.870Z,14.13
2022-12-01T14:18:36.792Z,14.68
2022-12-01T14:21:44.936Z,13.23
2022-12-01T14:24:36.477Z,11.05
2022-12-01T14:27:35.858Z,13.88
2022-12-01T14:31:14.924Z,12.70
2022-12-01T14:34:03.445Z,12.90
2022-12-01T14:36:56.857Z,13.32
2022-12-01T14:39:47.123Z,12.88
2022-12-01T14:42:55.117Z,13.88
2022-12-01T14:45:49.557Z,13.45
2022-12-01T14:48:42.222Z,15.20
2022-12-01T14:51:32.344Z,14.07
2022-12-01T14:54:26.901Z,12.52
2022-12-01T14:57:17.460Z,17.55
2022-12-01T15:00:11.049Z,15.68
2022-12-01T15:03:01.230Z,14.57
2022-12-01T15:05:48.250Z,15.20
2022-12-01T15:08:43.466Z,15.77
2022-12-01T15:11:33.263Z,14.65
2022-12-01T15:14:26.526Z,15.95
2022-12-01T15:17:30.098Z,15.60
2022-12-01T15:20:29.726Z,14.65
2022-12-01T15:23:18.274Z,13.75
2022-12-01T15:26:05.732Z,14.95
2022-12-01T15:29:06.247Z,13.52
2022-12-01T15:31:55.281Z,12.52
2022-12-01T15:34:44.769Z,13.02
2022-12-01T15:37:41.683Z,14.20
2022-12-01T15:43:41.401Z,14.25
2022-12-01T15:46:31.707Z,16.33
2022-12-01T15:49:21.339Z,15.48
2022-12-01T15:52:11.315Z,13.90
2022-12-01T15:55:03.128Z,14.35
2022-12-01T15:57:50.068Z,13.40
2022-12-01T16:00:37.244Z,15.00
2022-12-01T16:03:25.939Z,14.63
2022-12-01T16:06:13.733Z,13.95
2022-12-01T16:09:03.003Z,14.05
2022-12-01T16:12:06.026Z,13.05
2022-12-01T16:15:04.244Z,12.85
2022-12-01T16:17:52.951Z,12.45
2022-12-01T16:20:44.327Z,12.90
2022-12-01T16:23:32.208Z,13.35
2022-12-01T16:26:19.467Z,15.02
2022-12-01T16:29:19.959Z,14.77
2022-12-01T16:32:21.609Z,13.10
2022-12-01T16:35:25.337Z,14.43
2022-12-01T16:38:16.502Z,13.13
2022-12-01T16:41:15.200Z,15.57
2022-12-01T16:44:26.941Z,15.55
2022-12-01T16:50:03.060Z,13.82
2022-12-01T16:52:50.638Z,13.43
2022-12-01T16:55:44.610Z,14.45
2022-12-01T16:58:31.600Z,17.02
2022-12-01T17:01:18.699Z,14.75
2022-12-01T17:04:07.796Z,16.67
2022-12-01T17:06:55.529Z,15.45
2022-12-01T17:09:42.730Z,14.77
2022-12-01T17:12:31.311Z,16.67
2022-12-01T17:15:18.550Z,13.35
2022-12-01T17:18:06.166Z,13.05
2022-12-01T17:21:00.231Z,13.48
2022-12-01T17:23:47.287Z,11.40
2022-12-01T17:26:34.095Z,12.18
2022-12-01T17:29:26.434Z,11.82
2022-12-01T17:32:14.367Z,11.98
2022-12-01T17:35:01.635Z,10.50
2022-12-01T17:37:48.402Z,12.43
2022-12-01T17:40:35.572Z,11.90
2022-12-01T17:43:23.274Z,12.18
2022-12-01T17:46:13.568Z,13.18
2022-12-01T17:49:00.827Z,13.93
2022-12-01T17:51:48.105Z,13.77
2022-12-01T17:54:35.329Z,13.52
2022-12-01T17:57:22.351Z,14.07
2022-12-01T18:00:10.384Z,14.35
2022-12-01T18:02:59.089Z,13.50
2022-12-01T18:05:46.231Z,11.75
2022-12-01T18:08:35.446Z,11.43
2022-12-01T18:11:23.909Z,12.40
2022-12-01T18:14:11.467Z,13.23
2022-12-01T18:16:58.487Z,12.73
2022-12-01T18:19:47.518Z,12.18
2022-12-01T18:22:34.403Z,12.55
2022-12-01T18:25:22.176Z,11.23
2022-12-01T18:28:11.156Z,12.18
2022-12-01T18:31:03.421Z,12.05
2022-12-01T18:33:50.553Z,12.57
2022-12-01T18:36:41.246Z,13.73
2022-12-01T18:39:28.318Z,13.77
2022-12-01T18:42:15.501Z,14.52
2022-12-01T18:45:02.567Z,15.05
2022-12-01T18:47:49.586Z,14.90
2022-12-01T18:50:36.567Z,14.60
2022-12-01T18:53:24.891Z,14.95
2022-12-01T18:56:12.879Z,15.98
2022-12-01T18:59:03.805Z,14.63
2022-12-01T19:01:50.877Z,16.77
2022-12-01T19:04:38.159Z,16.33
2022-12-01T19:07:29.495Z,17.52
2022-12-01T19:10:19.020Z,15.65
2022-12-01T19:13:05.858Z,16.73
2022-12-01T19:15:53.072Z,16.48
2022-12-01T19:18:40.544Z,14.85
2022-12-01T19:21:27.532Z,13.82
2022-12-01T19:24:14.908Z,15.18
2022-12-01T19:27:04.491Z,14.57
2022-12-01T19:29:52.318Z,14.20
2022-12-01T19:32:40.238Z,13.68
2022-12-01T19:35:27.480Z,14.35
2022-12-01T19:38:14.447Z,14.80
2022-12-01T19:41:01.849Z,17.40
2022-12-01T19:43:50.193Z,16.83
2022-12-01T19:46:37.151Z,15.73
2022-12-01T19:49:26.149Z,17.25
2022-12-01T19:52:13.095Z,16.80
2022-12-01T19:55:00.204Z,16.10
2022-12-01T19:57:51.410Z,17.95
2022-12-01T20:00:39.884Z,17.35
2022-12-01T20:03:26.752Z,17.42
2022-12-01T20:06:16.096Z,16.52
2022-12-01T20:09:06.244Z,16.17
2022-12-01T20:11:54.327Z,16.67
2022-12-01T20:14:41.465Z,17.45
2022-12-01T20:17:30.586Z,17.20
2022-12-01T20:20:17.812Z,16.30
2022-12-01T20:23:04.733Z,17.35
2022-12-01T20:25:51.947Z,17.38
2022-12-01T20:28:39.801Z,17.67
2022-12-01T20:31:28.910Z,18.00
2022-12-01T20:34:19.506Z,19.67
2022-12-01T20:37:06.793Z,19.70
2022-12-01T20:39:54.191Z,19.98
2022-12-01T20:42:42.073Z,20.27
2022-12-01T20:45:29.355Z,21.02
2022-12-01T20:48:16.640Z,20.23
2022-12-01T20:51:06.993Z,18.35
2022-12-01T20:54:19.788Z,18.45
2022-12-01T20:57:01.355Z,19.40
2022-12-01T20:59:48.481Z,18.98
2022-12-01T21:02:35.727Z,17.35
2022-12-01T21:05:22.962Z,17.15
2022-12-01T21:08:13.304Z,15.20
2022-12-01T21:11:06.015Z,14.65
2022-12-01T21:13:51.990Z,15.13
2022-12-01T21:16:39.966Z,14.32
2022-12-01T21:19:32.412Z,14.50
2022-12-01T21:22:20.219Z,15.52
2022-12-01T21:25:15.498Z,15.65
2022-12-01T21:28:11.258Z,14.18
2022-12-01T21:31:03.373Z,15.13
2022-12-01T21:33:50.576Z,15.50
2022-12-01T21:36:37.726Z,14.25
2022-12-01T21:39:26.495Z,15.98
2022-12-01T21:42:21.137Z,15.18
2022-12-01T21:45:19.193Z,15.27
2022-12-01T21:48:15.860Z,15.43
2022-12-01T21:53:51.730Z,15.55
2022-12-01T21:56:38.938Z,15.98
2022-12-01T21:59:27.371Z,15.40
2022-12-01T22:02:35.848Z,16.42
2022-12-01T22:05:29.714Z,17.95
2022-12-01T22:08:24.480Z,16.63
2022-12-01T22:11:16.139Z,17.38
2022-12-01T22:14:21.956Z,17.92
2022-12-01T22:17:17.814Z,17.63
2022-12-01T22:20:22.279Z,19.58
2022-12-01T22:23:13.445Z,17.27
2022-12-01T22:26:01.421Z,18.33
2022-12-01T22:28:48.653Z,19.35
2022-12-01T22:31:35.788Z,18.80
2022-12-01T22:34:24.291Z,17.33
2022-12-01T22:37:16.123Z,17.67
2022-12-01T22:40:23.704Z,17.15
2022-12-01T22:43:27.260Z,17.88
2022-12-01T22:46:26.497Z,15.75
2022-12-01T22:49:22.249Z,17.33
2022-12-01T22:52:19.706Z,16.80
2022-12-01T22:55:16.150Z,17.77
2022-12-01T22:58:09.406Z,16.95
2022-12-01T23:00:58.102Z,18.67
2022-12-01T23:03:45.467Z,16.25
2022-12-01T23:06:58.670Z,18.58
2022-12-01T23:09:47.053Z,18.83
2022-12-01T23:12:36.188Z,16.88
2022-12-01T23:15:29.248Z,17.52
2022-12-01T23:18:20.105Z,17.33
2022-12-01T23:21:08.256Z,17.92
2022-12-01T23:23:55.601Z,18.60
2022-12-01T23:26:46.484Z,18.13
2022-12-01T23:29:34.225Z,17.33
2022-12-01T23:32:21.031Z,16.38
2022-12-01T23:35:14.950Z,17.08
2022-12-01T23:38:02.189Z,15.98
2022-12-01T23:40:50.287Z,17.20
2022-12-01T23:43:43.724Z,17.95
2022-12-01T23:46:30.813Z,17.27
2022-12-01T23:49:21.558Z,16.38
2022-12-01T23:52:13.987Z,17.02
2022-12-01T23:55:01.602Z,16.45
2022-12-01T23:57:48.963Z,17.13
